Flight VSA454F

  • Submitted By: Kevin Harkins
  • Departure Airport: Philadelphia International Airport (KPHL)
  • Arrival Airport: Cincinnati/Northern Kentucky KCVG HUB (KCVG)
  • Aircraft: DC9F (N9665SA)
  • Flight Time: 01.32
  • Date Submitted: 10/10/2016
  • Route: DIRECT, PILOTS OPTION.
  • Status: Accepted
Flight Details
Gross Revenue:
(22435 load / $ 50.00 per unit
$ 1,121,750.00
Fuel Cost:
(10644 fuel used @ 5.1 / unit)
$ 54,284.40

Flight Details

  • Upper FWD Main: N/A
  • Upper AFT Main: N/A
  • Lower FWD: 4 x LD7
  • Lower AFT: 4 x LD8
  • WX Engine used: FS WX
  • Flight Type IFR/VFR: IFR
  • Number of Flight Crew: 2
  • Upper Main Center Single : N/A
  • A380 UPR MAIN SGL: -
  • A380 MID MAIN SGL: -
  • A380 LWR DECK SGL: -

Additional Log Information:

View Log

[11:44] Aircraft Title - AI DC-9 srs 10
[11:44] Aircraft Model - DC91
[11:44] Flight Number VSA454F
[11:44] Departure KPHL
[11:44] Destination KCVG
[11:45] Boarding
[11:46] Taxiing to Runway
[11:49] Taking Off
[11:49] Taking Off
[11:49] 179kts
[11:49] pitch angle 8 degrees
[11:49] 12102 (lbs) of fuel onboard
[11:50] Climbing
[12:25] Overspeed
[12:25] Overspeed Corrected
[12:27] Overspeed
[12:27] Overspeed Corrected
[12:36] Overspeed
[12:36] Overspeed Corrected
[12:40] Overspeed
[12:41] Overspeed Corrected
[13:14] Landing Rate -338fpm
[13:14] 2224 (lbs) of fuel onboard
[13:14] pitch angle 6 degrees
[13:17] Max Sim Rate: 1x
[13:17] kACARS_Free Version 1.0.1.1

Comments

Commenter Comment
Kevin Harkins KPHL / KCVG DC-9 10/10/16 FLT# VSA454F KPHL DCT BYRDD J230 LARRI J110 BEETS J230 GRAHM J110 VINSE J230 LEJOY J110 AIR J80 CORVS J110 ZANDR J80 BOWRR J110 EMPTY DCT KCVG KPHL 101554Z 35018G24KT 10SM CLR 15/M02 A3030 RMK AO2 SLP258 T01501017 $ KCVO 101535Z 01011KT 10SM 11/08 A3004 RMK AO1 CREW 2
Roy Elliman Pres great job Kevin , well done sir , looks like you have it now .

Route Map

Pilots Online

Guests Online